28 mai 2022

Temps Code Temps Temp. Vue Base cloud Vent METAR/SPECI
6:20 am
V
48 °F 6¼ mi+ - 280° 280° 7 kt METAR EDDG 280420Z 28007KT 220V310 9999 FEW025 09/07 Q1019 NOSIG
5:50 am
V
48 °F 6¼ mi+ - 270° 270° 9 kt METAR EDDG 280350Z 27009KT 9999 FEW023 09/07 Q1019 NOSIG
5:20 am
V
48 °F 6¼ mi+ - 280° 280° 7 kt METAR EDDG 280320Z 28007KT 9999 FEW028 09/08 Q1019 NOSIG
4:50 am
V
48 °F 6¼ mi+ - 270° 270° 7 kt METAR EDDG 280250Z 27007KT 9999 FEW026 SCT038 09/08 Q1019 NOSIG
4:20 am
V
50 °F 6¼ mi+ 4.200 ft 280° 280° 9 kt METAR EDDG 280220Z 28009KT 9999 -SHRA FEW023 FEW026TCU BKN042 10/08 Q1019 NOSIG
3:50 am
V
52 °F 6¼ mi+ - 270° 270° 11 kt METAR EDDG 280150Z 27011KT 9999 -SHRA FEW023 SCT026TCU 11/07 Q1018 TEMPO SHRA
3:20 am
V
50 °F 6¼ mi+ - 260° 260° 10 kt METAR EDDG 280120Z 26010KT 9999 FEW028 SCT038 10/07 Q1019 NOSIG
2:50 am
V
50 °F 6¼ mi+ - 260° 260° 9 kt METAR EDDG 280050Z 26009KT 9999 FEW035 10/07 Q1019 NOSIG
2:20 am
V
50 °F 6¼ mi+ - 250° 250° 10 kt METAR EDDG 280020Z 25010KT 9999 FEW042 10/06 Q1019 NOSIG
1:50 am
V
52 °F 6¼ mi+ - 250° 250° 11 kt METAR EDDG 272350Z 25011KT 9999 FEW042 11/06 Q1019 NOSIG
1:20 am
V
52 °F 6¼ mi+ - 250° 250° 10 kt METAR EDDG 272320Z 25010KT 9999 FEW042 11/06 Q1019 NOSIG
12:50 am
V
52 °F 6¼ mi+ - 250° 250° 10 kt METAR EDDG 272250Z 25010KT 9999 FEW036 11/06 Q1020 NOSIG
12:20 am
V
52 °F 6¼ mi+ - 250° 250° 10 kt METAR EDDG 272220Z 25010KT 9999 FEW036 SCT045 11/06 Q1020 NOSIG

27 mai 2022

Temps Code Temps Temp. Vue Base cloud Vent METAR/SPECI
11:50 pm
V
52 °F 6¼ mi+ - 250° 250° 8 kt METAR EDDG 272150Z 25008KT 9999 FEW036 SCT042 11/06 Q1020 NOSIG
11:20 pm
V
52 °F 6¼ mi+ - 260° 260° 8 kt METAR EDDG 272120Z 26008KT 9999 FEW036 11/06 Q1020 NOSIG
10:50 pm
V
54 °F 6¼ mi+ - 270° 270° 11 kt METAR EDDG 272050Z 27011KT 9999 FEW036 12/06 Q1020 NOSIG
10:20 pm
V
54 °F 6¼ mi+ - 270° 270° 9 kt METAR EDDG 272020Z 27009KT 9999 FEW038 12/06 Q1020 NOSIG
9:50 pm
V
55 °F 6¼ mi+ - 280° 280° 12 kt METAR EDDG 271950Z 28012KT 9999 FEW034 13/06 Q1020 NOSIG
9:20 pm
V
55 °F 6¼ mi+ - 280° 280° 11 kt METAR EDDG 271920Z 28011KT 9999 FEW036 13/06 Q1020 NOSIG
8:50 pm
V
55 °F 6¼ mi+ - 280° 280° 14 kt METAR EDDG 271850Z 28014KT 250V350 9999 FEW036 13/05 Q1020 TEMPO 28009KT
8:20 pm
V
57 °F 6¼ mi+ - 290° 290° 14 - 24 kt METAR EDDG 271820Z 29014G24KT 260V330 9999 FEW036 14/05 Q1020 TEMPO 28015KT
7:50 pm
V
57 °F 6¼ mi+ - 280° 280° 13 kt METAR EDDG 271750Z 28013KT 9999 SCT041 14/06 Q1020 NOSIG
7:20 pm
V
59 °F 6¼ mi+ - 270° 270° 16 kt METAR EDDG 271720Z 27016KT 260V320 9999 SCT041 15/05 Q1020 NOSIG
6:50 pm
V
59 °F 6¼ mi+ - 290° 290° 15 - 29 kt METAR EDDG 271650Z 29015G29KT 9999 SCT044 15/05 Q1020 NOSIG
6:20 pm
V
59 °F 6¼ mi+ - 280° 280° 16 kt METAR EDDG 271620Z 28016KT 9999 FEW046 15/06 Q1020 TEMPO 30020G30KT
5:50 pm
V
61 °F 6¼ mi+ - 290° 290° 15 kt METAR EDDG 271550Z 29015KT 270V330 CAVOK 16/06 Q1020 TEMPO 30020G30KT
5:20 pm
V
63 °F 6¼ mi+ - 270° 270° 17 kt METAR EDDG 271520Z 27017KT 250V320 CAVOK 17/05 Q1019 TEMPO 30020G30KT
4:50 pm
V
63 °F 6¼ mi+ - 290° 290° 16 kt METAR EDDG 271450Z 29016KT 260V320 CAVOK 17/05 Q1019 TEMPO 30020G30KT
4:20 pm
V
63 °F 6¼ mi+ - 290° 290° 18 kt METAR EDDG 271420Z 29018KT 260V330 CAVOK 17/05 Q1019 TEMPO 30020G30KT
3:50 pm
V
63 °F 6¼ mi+ - 290° 290° 18 kt METAR EDDG 271350Z 29018KT CAVOK 17/05 Q1019 TEMPO 30020G30KT
3:20 pm
V
63 °F 6¼ mi+ - 290° 290° 14 kt METAR EDDG 271320Z 29014KT 260V320 CAVOK 17/05 Q1019 TEMPO 30020G30KT
2:50 pm
V
64 °F 6¼ mi+ - 280° 280° 16 kt METAR EDDG 271250Z 28016KT 240V310 CAVOK 18/05 Q1019 TEMPO 30020G30KT
2:20 pm
V
63 °F 6¼ mi+ - 270° 270° 19 kt METAR EDDG 271220Z 27019KT 250V310 CAVOK 17/05 Q1019 TEMPO 30020G30KT
1:50 pm
V
63 °F 6¼ mi+ - 280° 280° 17 - 27 kt METAR EDDG 271150Z 28017G27KT 250V320 CAVOK 17/05 Q1019 NOSIG
1:20 pm
V
63 °F 6¼ mi+ - 280° 280° 18 kt METAR EDDG 271120Z 28018KT 9999 SCT048 17/05 Q1019 TEMPO 30020G30KT
12:50 pm
V
64 °F 6¼ mi+ - 270° 270° 16 kt METAR EDDG 271050Z 27016KT 250V340 9999 SCT048 18/06 Q1019 TEMPO 30020G30KT
12:20 pm
V
61 °F 6¼ mi+ - 280° 280° 20 kt METAR EDDG 271020Z 28020KT 9999 SCT046 16/05 Q1019 TEMPO 30020G30KT
11:50 am
V
63 °F 6¼ mi+ - 270° 270° 21 kt METAR EDDG 270950Z 27021KT 250V310 9999 FEW044 17/06 Q1019 NOSIG
11:20 am
V
61 °F 6¼ mi+ - 290° 290° 16 - 26 kt METAR EDDG 270920Z 29016G26KT 9999 SCT044 16/06 Q1019 NOSIG
10:50 am
V
61 °F 6¼ mi+ - 290° 290° 17 kt METAR EDDG 270850Z 29017KT 260V330 9999 SCT040 16/08 Q1018 NOSIG
10:20 am
V
61 °F 6¼ mi+ - 280° 280° 20 kt METAR EDDG 270820Z 28020KT 9999 SCT040 16/06 Q1018 NOSIG
9:50 am
V
61 °F 6¼ mi+ - 270° 270° 18 - 32 kt METAR EDDG 270750Z 27018G32KT 240V300 9999 FEW030 16/07 Q1018 NOSIG
9:20 am
V
59 °F 6¼ mi+ - 270° 270° 15 kt METAR EDDG 270720Z 27015KT 9999 SCT021 15/09 Q1018 NOSIG
8:50 am
V
59 °F 6¼ mi+ - 260° 260° 13 kt METAR EDDG 270650Z 26013KT 9999 FEW016 15/10 Q1018 NOSIG
8:20 am
V
57 °F 6¼ mi+ - 260° 260° 12 kt METAR EDDG 270620Z 26012KT 9999 FEW015 14/12 Q1018 NOSIG
7:50 am
V
57 °F 6¼ mi+ - 260° 260° 10 kt METAR EDDG 270550Z 26010KT 9999 FEW015 14/12 Q1018 NOSIG
7:20 am
V
55 °F 6¼ mi+ - 260° 260° 8 kt METAR EDDG 270520Z 26008KT 9999 SCT015 13/12 Q1018 NOSIG
6:50 am
V
55 °F 6¼ mi+ - 250° 250° 8 kt METAR EDDG 270450Z 25008KT 9999 FEW017 13/12 Q1018 NOSIG
6:20 am
V
55 °F 6¼ mi+ - 260° 260° 8 kt METAR EDDG 270420Z 26008KT 9999 FEW014 SCT016 13/12 Q1018 NOSIG
5:50 am
V
55 °F 6¼ mi+ - 250° 250° 8 kt METAR EDDG 270350Z 25008KT 9999 SCT013 SCT016 13/12 Q1018 NOSIG
5:20 am
V
55 °F 6¼ mi+ - 270° 270° 9 kt METAR EDDG 270320Z 27009KT 9999 -RA FEW011 SCT014 13/12 Q1018 NOSIG
4:50 am
V
55 °F 6¼ mi+ - 260° 260° 9 kt METAR EDDG 270250Z 26009KT 9999 -RA SCT016 SCT042 13/13 Q1017 NOSIG
4:20 am
V
55 °F 6¼ mi+ - 260° 260° 7 kt METAR EDDG 270220Z 26007KT 9999 -RA SCT020 SCT035 13/12 Q1017 RESHRA NOSIG
3:50 am
I
54 °F 2¾ mi 2.400 ft 300° 300° 10 kt METAR EDDG 270150Z 30010KT 270V350 4500 SHRA FEW007 SCT016CB BKN024 12/12 Q1018 BECMG 6000 NSW
3:20 am
M
57 °F 6¼ mi+ 1.400 ft 230° 230° 14 kt METAR EDDG 270120Z 23014KT 9999 -RA FEW012 BKN014 14/13 Q1017 TEMPO RA
2:50 am
M
57 °F 6¼ mi+ 2.000 ft 230° 230° 15 kt METAR EDDG 270050Z 23015KT 210V270 9999 -RA FEW011 SCT014 BKN020 14/13 Q1017 TEMPO RA BKN014
2:20 am
M
57 °F 6¼ mi+ 1.700 ft 240° 240° 13 kt METAR EDDG 270020Z 24013KT 9999 -RA FEW012 BKN017 14/13 Q1017 RERA NOSIG
1:50 am
M
59 °F 6¼ mi+ 1.800 ft 240° 240° 13 kt METAR EDDG 262350Z 24013KT 9999 -RA FEW016 BKN018 15/12 Q1018 NOSIG
1:20 am
M
59 °F 6¼ mi+ 2.400 ft 240° 240° 11 kt METAR EDDG 262320Z 24011KT 9999 -RA SCT018 BKN024 15/13 Q1018 NOSIG
12:50 am
M
61 °F 6¼ mi+ 2.200 ft 240° 240° 14 kt METAR EDDG 262250Z 24014KT 9999 -RADZ FEW017 BKN022 16/12 Q1018 NOSIG
12:20 am
M
61 °F 6¼ mi+ 2.500 ft 250° 250° 13 kt METAR EDDG 262220Z 25013KT 9999 -RA FEW019 BKN025 16/12 Q1018 NOSIG

26 mai 2022

Temps Code Temps Temp. Vue Base cloud Vent METAR/SPECI
11:50 pm
M
63 °F 6¼ mi+ 2.200 ft 250° 250° 14 kt METAR EDDG 262150Z 25014KT 190V270 9999 -RA FEW018 BKN022 17/13 Q1018 NOSIG
11:20 pm
M
63 °F 6¼ mi+ 2.800 ft 250° 250° 14 kt METAR EDDG 262120Z 25014KT 9999 FEW023 BKN028 17/12 Q1018 NOSIG
10:50 pm
V
63 °F 6¼ mi+ 3.300 ft 240° 240° 10 kt METAR EDDG 262050Z 24010KT 9999 -RA FEW024 BKN033 17/12 Q1018 NOSIG
10:20 pm
V
63 °F 6¼ mi+ 4.400 ft 250° 250° 9 kt METAR EDDG 262020Z 25009KT 9999 FEW032 BKN044 17/12 Q1018 NOSIG
9:50 pm
V
63 °F 6¼ mi+ 3.600 ft 250° 250° 17 kt METAR EDDG 261950Z 25017KT 9999 SCT028 BKN036 17/12 Q1018 NOSIG
9:20 pm
V
64 °F 6¼ mi+ 3.800 ft 260° 260° 10 kt METAR EDDG 261920Z 26010KT 9999 SCT031 BKN038 18/11 Q1018 NOSIG
8:50 pm
V
64 °F 6¼ mi+ 4.800 ft 260° 260° 12 kt METAR EDDG 261850Z 26012KT 9999 SCT032 BKN048 18/11 Q1018 NOSIG
8:20 pm
V
66 °F 6¼ mi+ 3.900 ft 250° 250° 12 kt METAR EDDG 261820Z 25012KT 9999 FEW036 BKN039 19/11 Q1018 NOSIG
7:50 pm
V
66 °F 6¼ mi+ 4.100 ft 250° 250° 13 kt METAR EDDG 261750Z 25013KT 9999 FEW038 BKN041 19/10 Q1018 NOSIG
7:20 pm
V
66 °F 6¼ mi+ 4.200 ft 240° 240° 14 kt METAR EDDG 261720Z 24014KT 9999 FEW037 BKN042 19/10 Q1018 NOSIG
6:50 pm
V
66 °F 6¼ mi+ 4.000 ft 240° 240° 15 kt METAR EDDG 261650Z 24015KT 9999 FEW036 BKN040 19/10 Q1018 NOSIG
6:20 pm
V
68 °F 6¼ mi+ - 240° 240° 13 kt METAR EDDG 261620Z 24013KT 210V270 9999 SCT042 20/10 Q1018 NOSIG
5:50 pm
V
68 °F 6¼ mi+ - 250° 250° 17 kt METAR EDDG 261550Z 25017KT 9999 FEW042 20/10 Q1018 NOSIG
5:20 pm
V
68 °F 6¼ mi+ - 240° 240° 17 kt METAR EDDG 261520Z 24017KT 9999 FEW042 20/09 Q1019 NOSIG
4:50 pm
V
68 °F 6¼ mi+ - 250° 250° 17 kt METAR EDDG 261450Z 25017KT 9999 FEW040 20/10 Q1019 NOSIG
4:20 pm
V
68 °F 6¼ mi+ - 250° 250° 18 kt METAR EDDG 261420Z 25018KT 9999 FEW040 20/10 Q1019 NOSIG
3:50 pm
V
68 °F 6¼ mi+ - 250° 250° 17 kt METAR EDDG 261350Z 25017KT 9999 FEW038 SCT045 20/10 Q1019 NOSIG
3:20 pm
V
68 °F 6¼ mi+ - 240° 240° 15 kt METAR EDDG 261320Z 24015KT 9999 FEW038 20/10 Q1019 NOSIG
2:50 pm
V
66 °F 6¼ mi+ - 240° 240° 16 kt METAR EDDG 261250Z 24016KT 9999 FEW036 19/10 Q1019 NOSIG
2:20 pm
V
64 °F 6¼ mi+ - 250° 250° 13 kt METAR EDDG 261220Z 25013KT 210V270 9999 FEW034 SCT037 18/10 Q1020 NOSIG
1:50 pm
V
64 °F 6¼ mi+ - 250° 250° 12 kt METAR EDDG 261150Z 25012KT 220V280 9999 FEW034 SCT045 18/10 Q1020 NOSIG
1:20 pm
V
66 °F 6¼ mi+ - 260° 260° 13 kt METAR EDDG 261120Z 26013KT 9999 FEW034 19/10 Q1020 NOSIG
12:50 pm
V
66 °F 6¼ mi+ - 260° 260° 13 kt METAR EDDG 261050Z 26013KT 9999 FEW032 19/11 Q1020 NOSIG
12:20 pm
V
64 °F 6¼ mi+ - 250° 250° 14 kt METAR EDDG 261020Z 25014KT 9999 FEW027 18/11 Q1020 NOSIG
11:50 am
V
63 °F 6¼ mi+ - 250° 250° 13 kt METAR EDDG 260950Z 25013KT 9999 FEW027 17/10 Q1020 NOSIG
11:20 am
V
64 °F 6¼ mi+ - 250° 250° 12 kt METAR EDDG 260920Z 25012KT 9999 FEW027 18/11 Q1020 NOSIG
10:50 am
V
64 °F 6¼ mi+ - 250° 250° 13 kt METAR EDDG 260850Z 25013KT 9999 FEW023 SCT027 18/10 Q1019 NOSIG
10:20 am
V
63 °F 6¼ mi+ - 260° 260° 13 kt METAR EDDG 260820Z 26013KT 230V290 9999 FEW020 SCT024 17/11 Q1019 NOSIG
9:50 am
V
63 °F 6¼ mi+ - 250° 250° 12 kt METAR EDDG 260750Z 25012KT 9999 FEW018 SCT021 17/11 Q1019 NOSIG
9:20 am
V
61 °F 6¼ mi+ - 260° 260° 12 kt METAR EDDG 260720Z 26012KT 9999 FEW017 SCT019 16/11 Q1019 NOSIG
8:50 am
V
61 °F 6¼ mi+ - 250° 250° 12 kt METAR EDDG 260650Z 25012KT 9999 SCT016 SCT045 16/12 Q1018 NOSIG
8:20 am
V
61 °F 6¼ mi+ - 260° 260° 11 kt METAR EDDG 260620Z 26011KT 9999 SCT016 16/12 Q1018 NOSIG
7:50 am
V
59 °F 6¼ mi+ - 250° 250° 11 kt METAR EDDG 260550Z 25011KT 9999 SCT018 15/12 Q1018 NOSIG
7:20 am
M
59 °F 6¼ mi+ 1.600 ft 240° 240° 11 kt METAR EDDG 260520Z 24011KT 9999 BKN016 15/12 Q1017 NOSIG
6:50 am
M
59 °F 6¼ mi+ 1.600 ft 240° 240° 11 kt METAR EDDG 260450Z 24011KT 9999 BKN016 15/12 Q1017 NOSIG
6:20 am
M
59 °F 6¼ mi+ 1.800 ft 240° 240° 11 kt METAR EDDG 260420Z 24011KT 9999 FEW015 BKN018 15/12 Q1017 BECMG BKN013
5:50 am
M
59 °F 6¼ mi+ 1.600 ft 240° 240° 11 kt METAR EDDG 260350Z 24011KT 9999 BKN016 15/11 Q1017 BECMG BKN013
5:20 am
M
59 °F 6¼ mi+ 1.600 ft 230° 230° 10 kt METAR EDDG 260320Z 23010KT 9999 BKN016 15/11 Q1016 BECMG BKN013
4:50 am
M
59 °F 6¼ mi+ 1.800 ft 240° 240° 11 kt METAR EDDG 260250Z 24011KT 9999 -RA BKN018 15/11 Q1016 BECMG BKN013
4:20 am
M
59 °F 6¼ mi+ 1.900 ft 230° 230° 11 kt METAR EDDG 260220Z 23011KT 9999 BKN019 15/11 Q1016 BECMG BKN013
3:50 am
M
59 °F 6¼ mi+ 1.900 ft 230° 230° 12 kt METAR EDDG 260150Z 23012KT 9999 BKN019 15/11 Q1016 BECMG BKN013
3:20 am
M
59 °F 6¼ mi+ 1.900 ft 230° 230° 12 kt METAR EDDG 260120Z 23012KT 9999 BKN019 15/11 Q1016 BECMG BKN013
2:50 am
M
59 °F 6¼ mi+ 2.100 ft 230° 230° 11 kt METAR EDDG 260050Z 23011KT 200V270 9999 BKN021 15/10 Q1016 NOSIG
2:20 am
M
59 °F 6¼ mi+ 2.400 ft 220° 220° 9 kt METAR EDDG 260020Z 22009KT 9999 BKN024 15/10 Q1016 NOSIG
Données plus anciennes

Télécharge notre application

Un accès facile à toute la météo aéronautique sur ton téléphone portable et ta tablette.
Avec de nombreuses fonctionnalités non disponibles sur le site Web, comme la prise en charge hors ligne et une liste personnelle d'aéroports.

Nous et des tiers suivons ton comportement sur Internet sur notre site Web à l'aide de cookies. Si tu continues, nous supposons que tu acceptes notre politique en matière de cookies. Apprendre plus